Weather at Private Helipad

Public forecast

Using degrees Celsius for public forecast. Weather courtesy of forecast.io.

Closest aviation weather report (METAR) to Private Helipad

Report is more than 6 hours old.

Closest report is Mikonos Airport, 3.0 nm (5.6 km) W.

2022/11/14 15:20 (retrieved 2 years ago)

LGMK 141520Z 36021KT 9999 FEW015 15/09 Q1020

Closest aviation forecast (TAF) to Private Helipad

Forecast is more than 12 hours old.

Closest forecast is Santorini Airport, 62.7 nm (116.0 km) S.

2023/02/22 18:13 (retrieved 1 year ago)

TAF LGSR 221700Z 2218/2318 21012KT 9999 SCT018 BECMG 2306/2308 27010KT